createdAt,value
2022-10-02T00:00:19.350Z,3.97
2022-10-02T00:02:51.189Z,3.15
2022-10-02T00:05:26.187Z,4.35
2022-10-02T00:08:27.118Z,4.97
2022-10-02T00:11:17.622Z,2.97
2022-10-02T00:13:47.660Z,5.38
2022-10-02T00:16:28.548Z,7.22
2022-10-02T00:18:58.782Z,11.20
2022-10-02T00:21:54.842Z,5.00
2022-10-02T00:24:26.325Z,11.30
2022-10-02T00:27:03.721Z,8.10
2022-10-02T00:29:34.317Z,8.45
2022-10-02T00:32:19.454Z,10.60
2022-10-02T00:34:55.673Z,10.30
2022-10-02T00:37:28.900Z,6.22
2022-10-02T00:40:17.745Z,7.60
2022-10-02T00:42:56.816Z,7.97
2022-10-02T00:45:42.393Z,6.32
2022-10-02T00:48:24.796Z,7.80
2022-10-02T00:51:12.818Z,13.63
2022-10-02T00:53:56.754Z,8.90
2022-10-02T00:56:39.064Z,10.60
2022-10-02T00:59:12.490Z,10.68
2022-10-02T01:01:50.833Z,8.57
2022-10-02T01:04:34.240Z,14.63
2022-10-02T01:07:04.889Z,8.85
2022-10-02T01:09:34.952Z,10.90
2022-10-02T01:12:04.923Z,16.25
2022-10-02T01:14:38.261Z,6.90
2022-10-02T01:17:08.731Z,9.70
2022-10-02T01:19:40.075Z,10.93
2022-10-02T01:22:10.558Z,8.35
2022-10-02T01:24:53.369Z,8.23
2022-10-02T01:27:24.788Z,10.55
2022-10-02T01:30:15.337Z,9.10
2022-10-02T01:32:46.349Z,11.38
2022-10-02T01:35:16.367Z,14.63
2022-10-02T01:37:46.559Z,9.20
2022-10-02T01:40:32.964Z,10.93
2022-10-02T01:43:03.738Z,12.63
2022-10-02T01:45:47.335Z,12.50
2022-10-02T01:48:23.465Z,10.38
2022-10-02T01:51:02.573Z,10.82
2022-10-02T01:53:36.294Z,11.95
2022-10-02T01:56:09.557Z,11.57
2022-10-02T01:58:59.839Z,15.80
2022-10-02T02:01:42.131Z,10.85
2022-10-02T02:04:23.544Z,8.98
2022-10-02T02:07:01.695Z,10.75
2022-10-02T02:09:42.185Z,12.57
2022-10-02T02:12:15.218Z,11.18
2022-10-02T02:14:48.266Z,15.50
2022-10-02T02:17:22.706Z,12.98
2022-10-02T02:19:54.318Z,8.80
2022-10-02T02:22:29.108Z,10.00
2022-10-02T02:24:59.430Z,10.85
2022-10-02T02:27:30.413Z,10.15
2022-10-02T02:30:03.056Z,8.02
2022-10-02T02:32:33.778Z,9.80
2022-10-02T02:35:16.199Z,11.63
2022-10-02T02:37:46.743Z,13.52
2022-10-02T02:40:22.168Z,11.30
2022-10-02T02:42:55.764Z,13.45
2022-10-02T02:45:26.945Z,8.13
2022-10-02T02:47:57.700Z,13.48
2022-10-02T02:50:27.639Z,12.63
2022-10-02T02:53:06.838Z,17.17
2022-10-02T02:55:41.448Z,15.68
2022-10-02T02:58:23.371Z,12.75
2022-10-02T03:00:53.471Z,10.20
2022-10-02T03:03:23.433Z,14.23
2022-10-02T03:05:54.488Z,18.15
2022-10-02T03:08:29.381Z,12.25
2022-10-02T03:11:04.585Z,12.68
2022-10-02T03:13:40.789Z,16.40
2022-10-02T03:16:12.889Z,12.70
2022-10-02T03:18:49.626Z,7.95
2022-10-02T03:21:21.402Z,7.45
2022-10-02T03:24:00.661Z,7.82
2022-10-02T03:26:39.547Z,8.38
2022-10-02T03:29:11.999Z,8.93
2022-10-02T03:31:41.999Z,8.02
2022-10-02T03:34:11.966Z,11.40
2022-10-02T03:36:41.889Z,6.90
2022-10-02T03:39:27.130Z,7.68
2022-10-02T03:41:57.161Z,12.57
2022-10-02T03:44:27.186Z,11.50
2022-10-02T03:46:57.189Z,4.60
2022-10-02T03:49:27.165Z,5.35
2022-10-02T03:51:57.177Z,10.00
2022-10-02T03:54:37.033Z,3.85
2022-10-02T03:57:09.488Z,4.30
2022-10-02T03:59:57.731Z,3.85
2022-10-02T04:02:33.631Z,3.92
2022-10-02T04:05:12.099Z,4.45
2022-10-02T04:07:42.396Z,5.80
2022-10-02T04:10:15.343Z,5.82
2022-10-02T04:12:50.453Z,7.28
2022-10-02T04:15:20.792Z,5.32
2022-10-02T04:17:58.288Z,5.80
2022-10-02T04:20:32.897Z,6.95
2022-10-02T04:23:05.132Z,6.35
2022-10-02T04:25:36.295Z,6.95
2022-10-02T04:28:10.429Z,7.32
2022-10-02T04:30:40.423Z,7.95
2022-10-02T04:33:13.839Z,7.50
2022-10-02T04:35:43.749Z,11.95
2022-10-02T04:38:29.147Z,8.75
2022-10-02T04:41:21.945Z,10.52
2022-10-02T04:44:10.279Z,9.70
2022-10-02T04:46:58.681Z,10.75
2022-10-02T04:49:41.198Z,8.70
2022-10-02T04:52:11.120Z,9.07
2022-10-02T04:54:43.891Z,10.00
2022-10-02T04:57:49.234Z,13.18
2022-10-02T05:00:22.465Z,9.57
2022-10-02T05:03:15.161Z,8.30
2022-10-02T05:05:45.293Z,7.40
2022-10-02T05:08:24.978Z,10.80
2022-10-02T05:11:10.115Z,8.95
2022-10-02T05:13:59.100Z,11.07
2022-10-02T05:16:29.106Z,8.55
2022-10-02T05:19:09.236Z,17.13
2022-10-02T05:21:49.218Z,13.52
2022-10-02T05:24:39.303Z,14.23
2022-10-02T05:27:29.557Z,25.20
2022-10-02T05:30:15.222Z,14.88
2022-10-02T05:32:48.012Z,17.75
2022-10-02T05:35:36.385Z,19.80
2022-10-02T05:38:06.524Z,10.57
2022-10-02T05:40:38.886Z,11.85
2022-10-02T05:43:10.918Z,10.70
2022-10-02T05:45:42.019Z,9.70
2022-10-02T05:48:14.774Z,8.82
2022-10-02T05:50:45.038Z,7.97
2022-10-02T05:53:33.406Z,14.07
2022-10-02T05:56:14.866Z,5.10
2022-10-02T05:58:55.756Z,1.40
2022-10-02T06:01:28.610Z,1.02
2022-10-02T06:03:58.676Z,3.08
2022-10-02T06:06:31.775Z,2.20
2022-10-02T06:09:05.890Z,10.10
2022-10-02T06:11:37.986Z,9.23
2022-10-02T06:14:11.558Z,3.63
2022-10-02T06:16:42.194Z,4.82
2022-10-02T06:19:19.112Z,2.05
2022-10-02T06:21:53.544Z,4.00
2022-10-02T06:24:38.332Z,5.50
2022-10-02T06:27:13.294Z,2.90
2022-10-02T06:29:51.090Z,3.50
2022-10-02T06:32:24.084Z,5.45
2022-10-02T06:34:54.054Z,11.07
2022-10-02T06:37:37.891Z,3.53
2022-10-02T06:40:26.527Z,3.17
2022-10-02T06:43:15.435Z,2.30
2022-10-02T06:45:57.641Z,1.10
2022-10-02T06:48:31.693Z,0.75
2022-10-02T06:51:11.133Z,1.13
2022-10-02T06:53:50.430Z,0.52
2022-10-02T06:56:40.178Z,1.65
2022-10-02T06:59:14.640Z,2.13
2022-10-02T07:01:48.213Z,1.67
2022-10-02T07:04:36.903Z,4.53
2022-10-02T07:07:42.473Z,1.17
2022-10-02T07:10:30.915Z,1.13
2022-10-02T07:13:04.125Z,3.63
2022-10-02T07:15:37.271Z,1.40
2022-10-02T07:18:16.581Z,2.70
2022-10-02T07:20:47.164Z,2.67
2022-10-02T07:23:28.504Z,1.05
2022-10-02T07:26:05.359Z,2.42
2022-10-02T07:28:55.600Z,7.68
2022-10-02T07:31:34.615Z,2.13
2022-10-02T07:34:19.343Z,1.48
2022-10-02T07:36:51.904Z,1.60
2022-10-02T07:39:39.837Z,2.90
2022-10-02T07:42:09.801Z,1.50
2022-10-02T07:44:49.794Z,1.63
2022-10-02T07:47:24.885Z,2.47
2022-10-02T07:49:58.172Z,4.82
2022-10-02T07:52:38.360Z,4.00
2022-10-02T07:55:19.555Z,5.00
2022-10-02T07:57:53.659Z,6.80
2022-10-02T08:00:26.102Z,2.08
2022-10-02T08:03:05.531Z,7.43
2022-10-02T08:05:37.756Z,4.55
2022-10-02T08:08:17.276Z,1.70
2022-10-02T08:10:49.505Z,5.82
2022-10-02T08:13:26.415Z,2.00
2022-10-02T08:15:57.546Z,1.77
2022-10-02T08:18:47.351Z,2.13
2022-10-02T08:21:19.253Z,4.82
2022-10-02T08:23:49.635Z,2.08
2022-10-02T08:26:35.338Z,4.22
2022-10-02T08:29:07.380Z,5.70
2022-10-02T08:31:37.589Z,6.82
2022-10-02T08:34:11.139Z,1.42
2022-10-02T08:37:01.389Z,1.50
2022-10-02T08:39:40.890Z,1.73
2022-10-02T08:42:14.603Z,2.28
2022-10-02T08:45:03.490Z,5.80
2022-10-02T08:47:52.116Z,1.92
2022-10-02T08:50:31.265Z,1.48
2022-10-02T08:53:20.618Z,6.43
2022-10-02T08:55:56.537Z,7.47
2022-10-02T08:58:46.161Z,4.45
2022-10-02T09:01:20.587Z,4.40
2022-10-02T09:03:50.900Z,2.35
2022-10-02T09:06:20.918Z,5.32
2022-10-02T09:08:59.245Z,3.63
2022-10-02T09:11:46.330Z,9.85
2022-10-02T09:14:33.128Z,3.67
2022-10-02T09:17:12.932Z,5.68
2022-10-02T09:19:43.749Z,7.32
2022-10-02T09:22:32.305Z,6.38
2022-10-02T09:25:02.545Z,4.95
2022-10-02T09:27:51.174Z,4.15
2022-10-02T09:30:25.273Z,8.63
2022-10-02T09:33:01.387Z,4.30
2022-10-02T09:35:34.372Z,5.72
2022-10-02T09:38:15.306Z,7.07
2022-10-02T09:41:03.808Z,5.10
2022-10-02T09:43:46.079Z,6.72
2022-10-02T09:46:35.190Z,10.63
2022-10-02T09:49:06.305Z,7.38
2022-10-02T09:51:48.582Z,9.35
2022-10-02T09:54:24.731Z,12.07
2022-10-02T09:56:54.725Z,9.98
2022-10-02T09:59:27.717Z,9.30
2022-10-02T10:02:30.156Z,7.32
2022-10-02T10:05:18.451Z,18.08
2022-10-02T10:07:50.999Z,7.05
2022-10-02T10:10:39.348Z,6.47
2022-10-02T10:13:23.401Z,7.05
2022-10-02T10:16:12.586Z,8.77
2022-10-02T10:18:49.007Z,15.18
2022-10-02T10:21:22.689Z,7.43
2022-10-02T10:24:14.591Z,7.32
2022-10-02T10:27:08.081Z,7.95
2022-10-02T10:30:01.164Z,6.82
2022-10-02T10:32:50.639Z,8.07
2022-10-02T10:35:23.293Z,9.23
2022-10-02T10:38:15.244Z,4.05
2022-10-02T10:40:45.178Z,5.43
2022-10-02T10:43:16.929Z,12.15
2022-10-02T10:46:00.166Z,7.22
2022-10-02T10:48:36.880Z,7.03
2022-10-02T10:51:18.105Z,7.82
2022-10-02T10:53:48.214Z,7.82
2022-10-02T10:56:22.954Z,12.45
2022-10-02T10:58:54.040Z,10.32
2022-10-02T11:01:38.111Z,7.75
2022-10-02T11:04:11.470Z,11.85
2022-10-02T11:06:45.318Z,9.35
2022-10-02T11:09:34.357Z,5.93
2022-10-02T11:12:23.217Z,4.97
2022-10-02T11:15:04.684Z,9.75
2022-10-02T11:17:34.825Z,9.63
2022-10-02T11:20:26.061Z,8.25
2022-10-02T11:22:56.027Z,7.43
2022-10-02T11:25:47.010Z,6.13
2022-10-02T11:28:22.845Z,4.30
2022-10-02T11:31:03.140Z,8.27
2022-10-02T11:33:52.323Z,8.57
2022-10-02T11:36:45.186Z,8.00
2022-10-02T11:39:16.919Z,8.98
2022-10-02T11:41:54.705Z,7.43
2022-10-02T11:44:25.902Z,3.58
2022-10-02T11:47:08.618Z,8.50
2022-10-02T11:49:47.894Z,5.85
2022-10-02T11:52:24.372Z,4.78
2022-10-02T11:55:13.215Z,7.55
2022-10-02T11:57:43.640Z,3.25
2022-10-02T12:00:31.687Z,12.10
2022-10-02T12:03:08.769Z,7.25
2022-10-02T12:08:30.940Z,5.05
2022-10-02T12:11:00.978Z,11.95
2022-10-02T12:13:33.830Z,5.50
2022-10-02T12:16:15.756Z,1.80
2022-10-02T12:18:45.881Z,5.85
2022-10-02T12:21:40.583Z,7.20
2022-10-02T12:24:50.358Z,4.35
2022-10-02T12:27:43.885Z,3.53
2022-10-02T12:30:30.596Z,12.38
2022-10-02T12:35:48.155Z,5.47
2022-10-02T12:38:21.709Z,6.18
2022-10-02T12:41:00.850Z,4.05
2022-10-02T12:43:37.817Z,8.77
2022-10-02T12:46:12.208Z,3.42
2022-10-02T12:48:43.485Z,10.68
2022-10-02T12:51:22.557Z,4.60
2022-10-02T12:54:08.767Z,6.78
2022-10-02T12:56:57.116Z,4.60
2022-10-02T12:59:36.614Z,6.03
2022-10-02T13:02:49.153Z,6.60
2022-10-02T13:05:18.026Z,5.78
2022-10-02T13:08:06.649Z,5.40
2022-10-02T13:10:59.224Z,5.88
2022-10-02T13:13:29.548Z,4.28
2022-10-02T13:16:07.500Z,4.88
2022-10-02T13:18:44.898Z,4.10
2022-10-02T13:21:33.317Z,3.88
2022-10-02T13:24:10.687Z,8.13
2022-10-02T13:26:53.142Z,8.38
2022-10-02T13:29:53.615Z,5.60
2022-10-02T13:32:35.541Z,8.35
2022-10-02T13:35:11.604Z,6.13
2022-10-02T13:37:47.404Z,5.68
2022-10-02T13:40:26.931Z,9.18
2022-10-02T13:43:11.693Z,4.78
2022-10-02T13:45:51.106Z,3.67
2022-10-02T13:48:27.414Z,2.08
2022-10-02T13:51:09.715Z,5.75
2022-10-02T13:53:50.226Z,3.45
2022-10-02T13:56:32.022Z,4.35
2022-10-02T13:59:08.052Z,3.85
2022-10-02T14:02:08.330Z,3.53
2022-10-02T14:04:51.792Z,4.25
2022-10-02T14:07:26.464Z,2.10
2022-10-02T14:10:06.093Z,2.72
2022-10-02T14:12:41.166Z,2.28
2022-10-02T14:15:20.461Z,4.60
2022-10-02T14:18:00.242Z,6.50
2022-10-02T14:20:42.580Z,3.65
2022-10-02T14:23:15.303Z,4.28
2022-10-02T14:25:45.282Z,4.32
2022-10-02T14:28:42.179Z,2.67
2022-10-02T14:31:29.536Z,8.27
2022-10-02T14:34:15.104Z,4.55
2022-10-02T14:36:45.076Z,3.63
2022-10-02T14:39:19.100Z,3.67
2022-10-02T14:42:07.446Z,2.88
2022-10-02T14:44:58.917Z,5.15
2022-10-02T14:47:30.053Z,8.30
2022-10-02T14:50:06.814Z,4.20
2022-10-02T14:55:24.652Z,2.90
2022-10-02T14:58:03.758Z,5.57
2022-10-02T15:00:42.918Z,3.15
2022-10-02T15:03:12.906Z,6.50
2022-10-02T15:05:43.160Z,3.63
2022-10-02T15:08:20.957Z,2.38
2022-10-02T15:10:51.268Z,6.15
2022-10-02T15:13:39.776Z,5.45
2022-10-02T15:16:39.370Z,5.65
2022-10-02T15:19:09.458Z,5.88
2022-10-02T15:21:42.573Z,3.63
2022-10-02T15:24:32.225Z,5.65
2022-10-02T15:27:05.712Z,4.82
2022-10-02T15:29:39.558Z,6.85
2022-10-02T15:32:28.344Z,6.72
2022-10-02T15:35:10.282Z,10.98
2022-10-02T15:37:58.631Z,6.57
2022-10-02T15:40:35.126Z,5.78
2022-10-02T15:43:13.821Z,3.15
2022-10-02T15:45:52.415Z,5.38
2022-10-02T15:48:25.399Z,6.47
2022-10-02T15:50:59.227Z,7.78
2022-10-02T15:53:32.127Z,4.60
2022-10-02T15:56:25.054Z,5.40
2022-10-02T15:59:01.599Z,7.68
2022-10-02T16:01:31.809Z,7.03
2022-10-02T16:04:16.835Z,5.35
2022-10-02T16:07:18.732Z,6.68
2022-10-02T16:10:05.785Z,1.70
2022-10-02T16:12:48.341Z,4.32
2022-10-02T16:15:36.780Z,3.00
2022-10-02T16:18:24.904Z,1.83
2022-10-02T16:21:10.147Z,6.30
2022-10-02T16:23:46.298Z,7.38
2022-10-02T16:26:35.056Z,4.07
2022-10-02T16:29:15.612Z,4.38
2022-10-02T16:31:47.468Z,4.22
2022-10-02T16:34:17.480Z,6.82
2022-10-02T16:36:54.508Z,7.05
2022-10-02T16:39:43.434Z,7.88
2022-10-02T16:42:23.644Z,8.85
2022-10-02T16:44:56.792Z,9.40
2022-10-02T16:47:31.339Z,14.88
2022-10-02T16:50:17.738Z,9.50
2022-10-02T16:53:06.140Z,8.77
2022-10-02T16:55:49.985Z,8.25
2022-10-02T16:58:26.151Z,8.93
2022-10-02T17:01:00.468Z,10.27
2022-10-02T17:03:34.841Z,4.43
2022-10-02T17:06:14.389Z,6.43
2022-10-02T17:09:04.052Z,5.25
2022-10-02T17:11:39.017Z,6.65
2022-10-02T17:14:27.466Z,3.55
2022-10-02T17:16:59.101Z,6.63
2022-10-02T17:19:32.155Z,4.85
2022-10-02T17:22:06.233Z,5.47
2022-10-02T17:24:36.315Z,5.80
2022-10-02T17:27:11.497Z,7.90
2022-10-02T17:29:51.017Z,7.57
2022-10-02T17:32:39.408Z,7.88
2022-10-02T17:35:32.878Z,5.20
2022-10-02T17:38:03.512Z,5.78
2022-10-02T17:40:45.362Z,6.95
2022-10-02T17:43:26.960Z,5.55
2022-10-02T17:46:19.861Z,4.75
2022-10-02T17:48:56.076Z,9.98
2022-10-02T17:51:52.902Z,9.45
2022-10-02T17:55:00.220Z,8.55
2022-10-02T17:57:34.270Z,4.32
2022-10-02T18:00:16.526Z,6.75
2022-10-02T18:03:04.771Z,4.90
2022-10-02T18:05:53.223Z,5.82
2022-10-02T18:08:30.342Z,12.30
2022-10-02T18:11:09.875Z,16.45
2022-10-02T18:13:43.697Z,18.17
2022-10-02T18:16:26.145Z,30.98
2022-10-02T18:18:59.007Z,32.00
2022-10-02T18:21:37.368Z,29.42
2022-10-02T18:24:23.623Z,35.58
2022-10-02T18:27:09.754Z,34.67
2022-10-02T18:29:48.602Z,33.15
2022-10-02T18:32:22.093Z,30.73
2022-10-02T18:34:52.323Z,31.33
2022-10-02T18:37:28.077Z,28.20
2022-10-02T18:40:11.498Z,35.23
2022-10-02T18:43:12.308Z,44.20
2022-10-02T18:46:08.683Z,47.50
2022-10-02T18:48:48.481Z,35.25
2022-10-02T18:51:37.329Z,44.75
2022-10-02T18:54:19.990Z,36.53
2022-10-02T18:56:53.352Z,25.13
2022-10-02T18:59:30.574Z,23.90
2022-10-02T19:02:07.033Z,22.33
2022-10-02T19:07:20.447Z,13.25
2022-10-02T19:09:50.684Z,10.85
2022-10-02T19:12:24.488Z,23.88
2022-10-02T19:14:56.315Z,20.23
2022-10-02T19:17:30.898Z,12.45
2022-10-02T19:20:00.956Z,9.07
2022-10-02T19:22:36.454Z,6.18
2022-10-02T19:25:07.997Z,9.80
2022-10-02T19:27:38.369Z,7.00
2022-10-02T19:30:09.373Z,7.82
2022-10-02T19:32:44.619Z,8.30
2022-10-02T19:35:19.069Z,9.15
2022-10-02T19:37:50.448Z,6.50
2022-10-02T19:40:24.118Z,5.25
2022-10-02T19:43:02.122Z,6.07
2022-10-02T19:45:33.937Z,6.90
2022-10-02T19:48:05.610Z,4.35
2022-10-02T19:50:59.378Z,3.05
2022-10-02T19:53:30.815Z,4.53
2022-10-02T19:56:01.478Z,3.10
2022-10-02T19:58:49.858Z,3.40
2022-10-02T20:01:27.640Z,5.25
2022-10-02T20:03:58.698Z,4.38
2022-10-02T20:06:33.146Z,4.47
2022-10-02T20:09:03.206Z,9.77
2022-10-02T20:11:44.379Z,7.25
2022-10-02T20:14:14.953Z,4.05
2022-10-02T20:17:03.864Z,8.63
2022-10-02T20:19:35.534Z,8.68
2022-10-02T20:22:07.902Z,5.70
2022-10-02T20:24:56.169Z,4.18
2022-10-02T20:27:35.948Z,2.67
2022-10-02T20:30:13.537Z,6.00
2022-10-02T20:32:55.187Z,4.22
2022-10-02T20:35:25.569Z,4.93
2022-10-02T20:37:55.851Z,4.80
2022-10-02T20:40:27.844Z,4.57
2022-10-02T20:43:05.927Z,11.40
2022-10-02T20:45:42.171Z,6.03
2022-10-02T20:48:25.334Z,4.57
2022-10-02T20:50:57.375Z,3.53
2022-10-02T20:53:27.580Z,6.68
2022-10-02T20:56:06.535Z,5.53
2022-10-02T20:58:51.549Z,7.18
2022-10-02T21:01:21.848Z,3.90
2022-10-02T21:04:17.337Z,6.97
2022-10-02T21:07:13.470Z,7.77
2022-10-02T21:09:43.732Z,4.20
2022-10-02T21:12:20.147Z,5.13
2022-10-02T21:15:09.536Z,4.07
2022-10-02T21:17:39.871Z,4.50
2022-10-02T21:20:49.801Z,8.18
2022-10-02T21:23:38.335Z,17.17
2022-10-02T21:26:08.474Z,5.13
2022-10-02T21:28:42.468Z,5.70
2022-10-02T21:31:12.886Z,10.35
2022-10-02T21:33:43.616Z,5.45
2022-10-02T21:36:23.785Z,5.65
2022-10-02T21:39:29.376Z,7.18
2022-10-02T21:42:18.656Z,6.50
2022-10-02T21:45:00.413Z,6.15
2022-10-02T21:47:44.924Z,6.47
2022-10-02T21:50:41.412Z,6.18
2022-10-02T21:53:34.179Z,10.50
2022-10-02T21:56:04.368Z,5.30
2022-10-02T21:58:46.531Z,8.95
2022-10-02T22:01:25.467Z,10.38
2022-10-02T22:03:58.877Z,7.32
2022-10-02T22:06:53.772Z,11.05
2022-10-02T22:09:28.078Z,10.30
2022-10-02T22:12:08.101Z,8.23
2022-10-02T22:14:41.244Z,11.45
2022-10-02T22:17:28.219Z,11.25
2022-10-02T22:20:10.459Z,6.35
2022-10-02T22:22:52.475Z,10.02
2022-10-02T22:25:22.602Z,12.75
2022-10-02T22:28:05.055Z,11.25
2022-10-02T22:30:43.594Z,11.88
2022-10-02T22:33:14.508Z,17.40
2022-10-02T22:36:06.837Z,21.08
2022-10-02T22:38:40.620Z,9.80
2022-10-02T22:41:14.039Z,10.70
2022-10-02T22:43:49.894Z,9.88
2022-10-02T22:46:23.257Z,7.45
2022-10-02T22:48:59.672Z,11.43
2022-10-02T22:51:40.569Z,8.25
2022-10-02T22:54:18.845Z,9.30
2022-10-02T22:57:04.887Z,9.23
2022-10-02T22:59:45.227Z,12.35
2022-10-02T23:02:26.998Z,10.32
2022-10-02T23:04:58.393Z,11.02
2022-10-02T23:07:30.880Z,14.70
2022-10-02T23:10:18.418Z,14.35
2022-10-02T23:12:48.877Z,12.18
2022-10-02T23:15:28.775Z,13.38
2022-10-02T23:18:03.834Z,15.75
2022-10-02T23:20:40.271Z,25.52
2022-10-02T23:23:16.888Z,25.75
2022-10-02T23:25:47.434Z,23.27
2022-10-02T23:28:33.478Z,31.83
2022-10-02T23:31:07.266Z,23.85
2022-10-02T23:33:41.293Z,18.17
2022-10-02T23:36:38.156Z,21.23
2022-10-02T23:39:12.250Z,18.70
2022-10-02T23:41:48.329Z,18.60
2022-10-02T23:44:21.265Z,31.52
2022-10-02T23:46:51.515Z,28.52
2022-10-02T23:49:25.308Z,21.65
2022-10-02T23:51:59.344Z,21.30
2022-10-02T23:54:32.688Z,24.95
2022-10-02T23:57:21.440Z,23.20
